Details From PAJN - Juneau Intl
To PAYA - Yakutat
Flight Number -
Tags Generated
Created
Modified
Stats Distance 172 nm / 318 km
Max Altitude 0 ft / 0 m
Waypoints 2
Social Downloads 2
Likes 0
Share VATSIM

Download

Looking for another format? Having issues loading an existing format? Contact us
Advertisement - Login to hide

Notes

Generated

Route

PAJN PAYA

ID Type Via Altitude Latitude Longitude Leg Dist Tot Dist Heading (true) Name
O PAJN APT - 0 ft / 0 m 58.35793˚ -134.59756˚ - 0 nm - -
O PAYA APT - 0 ft / 0 m 59.49627˚ -139.68486˚ 171 nm 171 nm 296° / 291° -

Altitude Profile

Advertisement - Login to hide

Weather


0- 5 10 15 20 25 30 35+ Temperature / ° C

Clouds and Precipitation
Forecast for 2017-12-11 00:00 UTC. Updated an hour ago

Ground ~20,000 ft ~40,000 ft Winds

PAJN

Details ICAO PAJN (JNU)
Name Juneau Intl
Region USA (Alaska)
Timezone America/Juneau (UTC-9.0)
Stats Elevation 21 ft / 6 m (AMSL)
Location 58.354964° -134.576278°
Runways 1
Magnetic Variation 19.151° E

METAR

PAJN 102353Z 09013KT 10SM -RA FEW034 BKN048 OVC090 06/05 A3009

Decode

TAF

TAF PAJN 102338Z 1100/1124 08008KT P6SM SCT040 OVC140 FM110300 11015G22KT P6SM -RA FEW008 BKN040 OVC070 WS020/12040KT FM110600 11021G32KT 5SM RA BR FEW007 BKN025 OVC040 WS020/14045KT FM112000 11012KT P6SM -RA FEW015 BKN035 OVC040

Decode

Departure Runways

ID Width Length Bearing (true) Bearing (mag) Surface Threshold Offset Overrun Length
08 150 ft / 46 m 8,430 ft / 2,570 m 104.87° 85.72° Asphalt 0 ft / 0 m 450 ft / 137 m
26 150 ft / 46 m 8,430 ft / 2,570 m 284.90° 265.75° Asphalt 0 ft / 0 m 225 ft / 69 m

PAYA

Details ICAO PAYA (YAK)
Name YAKUTAT
Region USA (Alaska)
Timezone America/Yakutat (UTC-9.0)
Stats Elevation 33 ft / 10 m (AMSL)
Location 59.503248° -139.661250°
Runways 2
Magnetic Variation 18.710° E

METAR

PAYA 102353Z AUTO 07008KT 10SM BKN050 OVC070 08/03 A2988 RMK AO2 PRESFR SLP118 60000 T00780033 10078 20067 58063 TSNO $

Decode

TAF

TAF PAYA 102338Z 1100/1124 07007KT P6SM SCT025 BKN090 OVC120 WS020/13025KT FM110300 08012KT 5SM -RA BR SCT015 OVC045 WS020/10040KT FM110600 11018G30KT 3SM RA BR BKN015 OVC025 WS020/13060KT FM111600 10008KT P6SM -RA SCT015 OVC025 AMD LTD TO CLD VIS AND WIND

Decode

Destination Runways

ID Width Length Bearing (true) Bearing (mag) Surface Threshold Offset Overrun Length
02 150 ft / 46 m 6,460 ft / 1,969 m 44.92° 26.21° Concrete 1,388 ft / 423 m 0 ft / 0 m
11 150 ft / 46 m 7,727 ft / 2,355 m 135.05° 116.34° Asphalt 0 ft / 0 m 0 ft / 0 m
20 150 ft / 46 m 6,460 ft / 1,969 m 224.95° 206.24° Concrete 0 ft / 0 m 0 ft / 0 m
29 150 ft / 46 m 7,727 ft / 2,355 m 315.08° 296.37° Asphalt 0 ft / 0 m 0 ft / 0 m

Approach Navaids

Runway Type Ident Frequency Range Bearing (true) Bearing (mag) Slope Elevation
11 Localiser IYAK 111.10 MHz 18 nm / 33 km 135.08° 116.37° - 24 ft / 7 m (AMSL)
11 Glidescope IYAK 111.10 MHz 10 nm / 19 km 135.06° 116.35° 3.00° 31 ft / 9 m (AMSL)

Popular Alternatives